Time;durP1;ratioP1;P1;durP2;ratioP2;P2;SDS_P1;SDS_P2;PMS_P1;PMS_P2;Temp;Humidity;BMP_temperature;BMP_pressure;BME280_temperature;BME280_humidity;BME280_pressure;Samples;Min_cycle;Max_cycle;Signal;HPM_P1;HPM_P2
2022/07/10 00:01:20;;;;;;;10.95;2.10;;;;;;;;;;5144264;27;20088;-74
2022/07/10 00:03:46;;;;;;;15.20;3.05;;;;;;;;;;5142220;27;20151;-78
2022/07/10 00:06:12;;;;;;;;;;;;;;;;;;5131483;27;20039;-74
2022/07/10 00:08:38;;;;;;;16.40;2.53;;;;;;;;;;5129939;27;19930;-72
2022/07/10 00:11:04;;;;;;;18.83;2.80;;;;;;;;;;5132279;27;20050;-72
2022/07/10 00:13:30;;;;;;;15.57;3.00;;;;;;;;;;5112510;27;20061;-75
2022/07/10 00:15:56;;;;;;;12.63;2.28;;;;;;;;;;5117084;27;20125;-75
2022/07/10 00:18:22;;;;;;;12.68;2.58;;;;;;;;;;5147843;27;20118;-73
2022/07/10 00:20:49;;;;;;;12.48;2.92;;;;;;;;;;5128344;27;20050;-74
2022/07/10 00:23:15;;;;;;;12.70;2.97;;;;;;;;;;5130929;27;20062;-73
2022/07/10 00:25:41;;;;;;;14.13;2.70;;;;;;;;;;5130871;27;20125;-73
2022/07/10 00:28:07;;;;;;;11.52;2.35;;;;;;;;;;5115515;27;20039;-73
2022/07/10 00:30:33;;;;;;;13.70;2.53;;;;;;;;;;5131147;27;20146;-75
2022/07/10 00:32:59;;;;;;;12.13;2.70;;;;;;;;;;5095626;27;20115;-72
2022/07/10 00:35:25;;;;;;;13.63;2.60;;;;;;;;;;5131199;27;20047;-73
2022/07/10 00:37:51;;;;;;;;;;;;;;;;;;5130629;27;20074;-72
2022/07/10 00:40:17;;;;;;;14.23;2.85;;;;;;;;;;5130695;27;20018;-71
2022/07/10 00:42:43;;;;;;;9.10;2.40;;;;;;;;;;5131226;27;20047;-71
2022/07/10 00:45:10;;;;;;;14.60;2.97;;;;;;;;;;5130927;27;20043;-71
2022/07/10 00:47:36;;;;;;;13.88;2.88;;;;;;;;;;5137772;27;20058;-73
2022/07/10 00:50:02;;;;;;;15.45;2.90;;;;;;;;;;5141392;27;20046;-71
2022/07/10 00:52:29;;;;;;;11.75;2.70;;;;;;;;;;5151862;27;20047;-72
2022/07/10 00:54:55;;;;;;;19.02;3.92;;;;;;;;;;5139041;27;20330;-72
2022/07/10 00:57:21;;;;;;;18.25;3.15;;;;;;;;;;5145267;27;20204;-71
2022/07/10 00:59:49;;;;;;;13.57;3.13;;;;;;;;;;5139771;27;20077;-72
2022/07/10 01:02:15;;;;;;;14.88;3.15;;;;;;;;;;5132748;27;20047;-72
2022/07/10 01:04:41;;;;;;;15.75;3.30;;;;;;;;;;5142055;27;20050;-72
2022/07/10 01:07:08;;;;;;;16.55;2.67;;;;;;;;;;5133280;27;20495;-71
2022/07/10 01:09:34;;;;;;;12.07;2.55;;;;;;;;;;5112116;27;20127;-71
2022/07/10 01:12:01;;;;;;;14.55;3.00;;;;;;;;;;5130588;27;20096;-71
2022/07/10 01:14:28;;;;;;;14.05;3.17;;;;;;;;;;5118154;27;20271;-71
2022/07/10 01:16:55;;;;;;;15.82;3.15;;;;;;;;;;5125400;27;20047;-72
2022/07/10 01:19:21;;;;;;;15.55;2.70;;;;;;;;;;5134245;27;20122;-71
2022/07/10 01:21:47;;;;;;;;;;;;;;;;;;5130627;27;20469;-71
2022/07/10 01:24:13;;;;;;;12.68;2.78;;;;;;;;;;5132750;27;19923;-71
2022/07/10 01:26:42;;;;;;;15.10;3.05;;;;;;;;;;5124244;27;20324;-77
2022/07/10 01:29:09;;;;;;;14.07;3.00;;;;;;;;;;5132296;27;20042;-72
2022/07/10 01:31:36;;;;;;;15.63;2.63;;;;;;;;;;5150661;27;20103;-71
2022/07/10 01:34:03;;;;;;;12.65;2.33;;;;;;;;;;5149392;27;20353;-72
2022/07/10 01:36:30;;;;;;;9.85;2.20;;;;;;;;;;5130028;27;20081;-71
2022/07/10 01:38:56;;;;;;;12.50;2.63;;;;;;;;;;5136730;27;20050;-75
2022/07/10 01:41:23;;;;;;;15.85;2.75;;;;;;;;;;5129345;27;20047;-72
2022/07/10 01:43:49;;;;;;;12.57;2.67;;;;;;;;;;5131947;27;20184;-72
2022/07/10 01:46:16;;;;;;;11.35;2.30;;;;;;;;;;5148771;27;20439;-71
2022/07/10 01:48:42;;;;;;;15.32;2.30;;;;;;;;;;5146277;27;20050;-77
2022/07/10 01:51:08;;;;;;;;;;;;;;;;;;5118958;27;20122;-71
2022/07/10 01:53:34;;;;;;;11.05;2.70;;;;;;;;;;5144490;27;19979;-72
2022/07/10 01:56:01;;;;;;;12.57;2.67;;;;;;;;;;5148190;27;20099;-71
2022/07/10 01:58:27;;;;;;;13.18;2.97;;;;;;;;;;5150021;27;20084;-71
2022/07/10 02:00:54;;;;;;;18.13;3.30;;;;;;;;;;5139890;27;20035;-71
2022/07/10 02:06:05;;;;;;;15.63;3.00;;;;;;;;;;5141774;27;20047;-72
2022/07/10 02:08:32;;;;;;;19.15;2.95;;;;;;;;;;5149899;27;20142;-71
2022/07/10 02:10:58;;;;;;;14.18;2.70;;;;;;;;;;5144207;27;20145;-70
2022/07/10 02:13:27;;;;;;;14.88;2.92;;;;;;;;;;5149577;27;20460;-71
2022/07/10 02:15:53;;;;;;;16.85;2.72;;;;;;;;;;5144614;27;20124;-72
2022/07/10 02:18:19;;;;;;;16.23;2.95;;;;;;;;;;5129157;27;20134;-71
2022/07/10 02:20:46;;;;;;;14.10;2.80;;;;;;;;;;5131994;27;20054;-77
2022/07/10 02:23:12;;;;;;;11.35;2.30;;;;;;;;;;5148780;27;20061;-71
2022/07/10 02:25:38;;;;;;;;;;;;;;;;;;5142596;27;20047;-70
2022/07/10 02:28:04;;;;;;;15.38;3.03;;;;;;;;;;5128292;27;19924;-73
2022/07/10 02:30:31;;;;;;;11.23;2.90;;;;;;;;;;5127420;27;20087;-73
2022/07/10 02:32:57;;;;;;;;;;;;;;;;;;5112329;28;20054;-71
2022/07/10 02:35:23;;;;;;;10.32;2.38;;;;;;;;;;5127319;27;19963;-72
2022/07/10 02:37:49;;;;;;;16.00;2.85;;;;;;;;;;5128060;28;20564;-72
2022/07/10 02:40:15;;;;;;;14.43;2.80;;;;;;;;;;5093450;27;20146;-72
2022/07/10 02:42:41;;;;;;;16.30;2.85;;;;;;;;;;5127785;27;20190;-73
2022/07/10 02:45:08;;;;;;;13.63;2.78;;;;;;;;;;5147906;27;20102;-70
2022/07/10 02:47:34;;;;;;;12.45;2.30;;;;;;;;;;5128239;27;20118;-71
2022/07/10 02:50:00;;;;;;;11.88;2.42;;;;;;;;;;5127474;27;20039;-71
2022/07/10 02:52:26;;;;;;;12.45;2.78;;;;;;;;;;5127147;27;20089;-72
2022/07/10 02:54:52;;;;;;;14.63;2.70;;;;;;;;;;5127885;28;20051;-73
2022/07/10 02:57:19;;;;;;;14.80;2.85;;;;;;;;;;5109234;28;20128;-72
2022/07/10 02:59:45;;;;;;;;;;;;;;;;;;5135645;27;20441;-71
2022/07/10 03:02:11;;;;;;;15.43;3.20;;;;;;;;;;5142280;27;19972;-71
2022/07/10 03:04:37;;;;;;;11.90;2.70;;;;;;;;;;5149172;27;20119;-71
2022/07/10 03:07:03;;;;;;;;;;;;;;;;;;5116152;28;20130;-70
2022/07/10 03:09:29;;;;;;;12.57;2.55;;;;;;;;;;5128447;28;20010;-71
2022/07/10 03:11:55;;;;;;;16.42;3.00;;;;;;;;;;5128924;27;20042;-71
2022/07/10 03:14:21;;;;;;;14.90;2.70;;;;;;;;;;5109844;28;20081;-71
2022/07/10 03:16:47;;;;;;;11.93;2.83;;;;;;;;;;5136090;27;20446;-72
2022/07/10 03:19:13;;;;;;;13.40;2.60;;;;;;;;;;5108709;28;20588;-72
2022/07/10 03:21:39;;;;;;;15.60;2.70;;;;;;;;;;5108598;28;20070;-71
2022/07/10 03:24:06;;;;;;;16.67;3.00;;;;;;;;;;5127031;27;20051;-71
2022/07/10 03:26:32;;;;;;;14.20;2.47;;;;;;;;;;5108799;28;20451;-71
2022/07/10 03:28:58;;;;;;;15.13;2.75;;;;;;;;;;5109417;28;20176;-71
2022/07/10 03:31:24;;;;;;;14.05;3.17;;;;;;;;;;5128023;27;20119;-72
2022/07/10 03:33:52;;;;;;;14.27;3.03;;;;;;;;;;5130285;27;20378;-72
2022/07/10 03:36:18;;;;;;;15.05;2.83;;;;;;;;;;5124473;27;20091;-72
2022/07/10 03:38:46;;;;;;;;;;;;;;;;;;5139465;27;20079;-70
2022/07/10 03:41:12;;;;;;;12.38;2.92;;;;;;;;;;5126489;27;20311;-72
2022/07/10 03:43:38;;;;;;;;;;;;;;;;;;5135037;27;20043;-73
2022/07/10 03:46:04;;;;;;;16.45;3.00;;;;;;;;;;5129775;27;20362;-73
2022/07/10 03:48:30;;;;;;;13.38;3.10;;;;;;;;;;5132178;27;20063;-72
2022/07/10 03:50:57;;;;;;;13.40;2.72;;;;;;;;;;5136549;27;20129;-78
2022/07/10 03:53:23;;;;;;;25.02;3.03;;;;;;;;;;5141418;27;20039;-72
2022/07/10 03:55:49;;;;;;;19.63;3.35;;;;;;;;;;5130709;27;20112;-73
2022/07/10 03:58:15;;;;;;;17.60;3.25;;;;;;;;;;5130892;27;20062;-72
2022/07/10 04:00:42;;;;;;;12.65;2.80;;;;;;;;;;5136393;27;20386;-72
2022/07/10 04:03:08;;;;;;;18.38;3.10;;;;;;;;;;5115969;27;20058;-73
2022/07/10 04:05:34;;;;;;;13.35;3.05;;;;;;;;;;5131351;27;20046;-73
2022/07/10 04:08:01;;;;;;;19.20;3.22;;;;;;;;;;5114772;27;20129;-79
2022/07/10 04:10:28;;;;;;;16.67;2.83;;;;;;;;;;5151217;27;20076;-75
2022/07/10 04:12:54;;;;;;;18.30;3.03;;;;;;;;;;5150946;27;20161;-74
2022/07/10 04:15:20;;;;;;;11.18;2.90;;;;;;;;;;5148010;27;20103;-73
2022/07/10 04:17:47;;;;;;;14.75;3.10;;;;;;;;;;5133004;27;20051;-74
2022/07/10 04:20:13;;;;;;;;;;;;;;;;;;5131033;27;20436;-75
2022/07/10 04:22:39;;;;;;;16.25;3.65;;;;;;;;;;5130145;27;19934;-73
2022/07/10 04:25:05;;;;;;;18.30;3.45;;;;;;;;;;5130431;27;20055;-74
2022/07/10 04:27:31;;;;;;;17.63;4.07;;;;;;;;;;5137653;27;20459;-72
2022/07/10 04:29:57;;;;;;;25.52;3.90;;;;;;;;;;5112198;27;20098;-73
2022/07/10 04:32:23;;;;;;;13.60;3.42;;;;;;;;;;5129967;27;20043;-73
2022/07/10 04:34:50;;;;;;;21.52;3.97;;;;;;;;;;5131658;27;20096;-72
2022/07/10 04:37:16;;;;;;;17.77;3.97;;;;;;;;;;5129759;27;20179;-73
2022/07/10 04:39:42;;;;;;;17.77;3.10;;;;;;;;;;5138284;27;20042;-73
2022/07/10 04:42:08;;;;;;;;;;;;;;;;;;5148440;27;20146;-72
2022/07/10 04:44:34;;;;;;;17.48;3.15;;;;;;;;;;5129971;27;19924;-72
2022/07/10 04:47:00;;;;;;;17.50;3.00;;;;;;;;;;5138272;27;20105;-73
2022/07/10 04:49:27;;;;;;;11.45;3.08;;;;;;;;;;5130090;27;20143;-72
2022/07/10 04:51:53;;;;;;;;;;;;;;;;;;5130835;27;20050;-75
2022/07/10 04:54:19;;;;;;;13.38;2.95;;;;;;;;;;5128683;27;19930;-74
2022/07/10 04:56:45;;;;;;;18.25;3.38;;;;;;;;;;5139469;27;20102;-74
2022/07/10 04:59:11;;;;;;;16.38;2.85;;;;;;;;;;5146544;27;20490;-75
2022/07/10 05:01:37;;;;;;;13.43;3.08;;;;;;;;;;5142829;27;20145;-71
2022/07/10 05:04:04;;;;;;;17.25;3.08;;;;;;;;;;5141431;27;20043;-72
2022/07/10 05:06:30;;;;;;;14.75;2.63;;;;;;;;;;5148343;27;20351;-72
2022/07/10 05:08:56;;;;;;;;;;;;;;;;;;5116327;27;20207;-73
2022/07/10 05:11:22;;;;;;;13.90;2.65;;;;;;;;;;5129039;27;19972;-72
2022/07/10 05:13:48;;;;;;;;;;;;;;;;;;5134299;27;20485;-72
2022/07/10 05:16:15;;;;;;;14.82;2.88;;;;;;;;;;5147908;27;19919;-72
2022/07/10 05:18:41;;;;;;;13.10;2.85;;;;;;;;;;5131675;27;20043;-71
2022/07/10 05:21:07;;;;;;;13.40;3.22;;;;;;;;;;5129396;27;20046;-73
2022/07/10 05:23:33;;;;;;;;;;;;;;;;;;5147766;27;20462;-71
2022/07/10 05:25:59;;;;;;;11.90;2.50;;;;;;;;;;5144623;27;20038;-69
2022/07/10 05:28:25;;;;;;;16.58;3.13;;;;;;;;;;5123437;27;20427;-70
2022/07/10 05:30:51;;;;;;;15.60;3.00;;;;;;;;;;5129799;27;20401;-71
2022/07/10 05:33:18;;;;;;;15.85;3.05;;;;;;;;;;5140234;27;20167;-71
2022/07/10 05:35:43;;;;;;;;;;;;;;;;;;5140964;27;20152;-72
2022/07/10 05:38:10;;;;;;;14.38;2.53;;;;;;;;;;5145298;27;20314;-71
2022/07/10 05:40:36;;;;;;;13.93;2.85;;;;;;;;;;5138717;27;20142;-71
2022/07/10 05:43:02;;;;;;;13.80;3.08;;;;;;;;;;5146739;27;20043;-71
2022/07/10 05:45:29;;;;;;;15.85;2.83;;;;;;;;;;5113634;27;20050;-71
2022/07/10 05:47:55;;;;;;;17.10;3.13;;;;;;;;;;5131123;27;20058;-77
2022/07/10 05:50:24;;;;;;;12.60;3.08;;;;;;;;;;5147535;27;20144;-69
2022/07/10 05:52:50;;;;;;;14.13;3.10;;;;;;;;;;5107244;27;20212;-70
2022/07/10 05:55:16;;;;;;;17.48;3.13;;;;;;;;;;5145079;27;20133;-71
2022/07/10 05:57:42;;;;;;;18.98;3.58;;;;;;;;;;5129128;27;20051;-71
2022/07/10 06:00:09;;;;;;;15.63;3.40;;;;;;;;;;5117295;27;20394;-71
2022/07/10 06:02:35;;;;;;;11.45;2.80;;;;;;;;;;5137140;27;20039;-71
2022/07/10 06:05:01;;;;;;;16.98;2.90;;;;;;;;;;5140403;27;20046;-71
2022/07/10 06:07:28;;;;;;;14.88;3.28;;;;;;;;;;5138789;27;20438;-70
2022/07/10 06:09:55;;;;;;;13.85;2.80;;;;;;;;;;5135954;27;20039;-73
2022/07/10 06:12:21;;;;;;;14.70;3.33;;;;;;;;;;5135339;27;20099;-74
2022/07/10 06:14:47;;;;;;;17.35;2.75;;;;;;;;;;5109239;27;20039;-71
2022/07/10 06:17:14;;;;;;;13.50;3.47;;;;;;;;;;5139331;27;20446;-70
2022/07/10 06:19:40;;;;;;;12.50;2.75;;;;;;;;;;5138960;27;20130;-72
2022/07/10 06:24:50;;;;;;;15.57;3.53;;;;;;;;;;5136678;27;20050;-72
2022/07/10 06:27:16;;;;;;;15.68;3.22;;;;;;;;;;5115461;27;20043;-72
2022/07/10 06:29:43;;;;;;;12.80;3.17;;;;;;;;;;5140467;27;20119;-72
2022/07/10 06:32:09;;;;;;;;;;;;;;;;;;5110794;27;20050;-71
2022/07/10 06:34:35;;;;;;;16.58;3.50;;;;;;;;;;5130343;27;20786;-70
2022/07/10 06:37:01;;;;;;;16.13;3.90;;;;;;;;;;5134598;27;20043;-70
2022/07/10 06:39:28;;;;;;;13.02;2.90;;;;;;;;;;5137773;27;20061;-75
2022/07/10 06:41:54;;;;;;;13.00;2.65;;;;;;;;;;5135988;27;20415;-70
2022/07/10 06:44:21;;;;;;;15.80;3.10;;;;;;;;;;5112424;27;20458;-80
2022/07/10 06:47:55;;;;;;;16.33;2.85;;;;;;;;;;5136019;27;20098;-70
2022/07/10 06:49:34;;;;;;;13.40;3.05;;;;;;;;;;5118626;27;20115;-71
2022/07/10 06:52:00;;;;;;;15.57;3.22;;;;;;;;;;5115999;27;20057;-72
2022/07/10 06:54:26;;;;;;;;;;;;;;;;;;5137833;27;20043;-73
2022/07/10 06:56:52;;;;;;;11.45;2.50;;;;;;;;;;5143072;27;19987;-74
2022/07/10 06:59:18;;;;;;;12.32;2.80;;;;;;;;;;5139688;27;20451;-75
2022/07/10 07:01:44;;;;;;;17.17;3.20;;;;;;;;;;5134648;27;20504;-71
2022/07/10 07:04:10;;;;;;;13.80;2.97;;;;;;;;;;5138761;27;20062;-71
2022/07/10 07:06:36;;;;;;;16.75;3.13;;;;;;;;;;5123438;27;20138;-74
2022/07/10 07:09:02;;;;;;;15.43;3.22;;;;;;;;;;5118171;27;20383;-73
2022/07/10 07:11:28;;;;;;;11.48;2.90;;;;;;;;;;5132181;27;20043;-73
2022/07/10 07:13:54;;;;;;;15.88;4.15;;;;;;;;;;5148671;27;20042;-70
2022/07/10 07:16:27;;;;;;;13.93;3.65;;;;;;;;;;5109130;27;20770;-73
2022/07/10 07:18:55;;;;;;;13.48;2.53;;;;;;;;;;5140254;27;20047;-86
2022/07/10 07:24:07;;;;;;;10.48;2.92;;;;;;;;;;5148804;27;20173;-84
2022/07/10 07:26:33;;;;;;;13.23;3.10;;;;;;;;;;5144101;27;20066;-81
2022/07/10 07:28:59;;;;;;;12.45;3.08;;;;;;;;;;5142190;27;20119;-77
2022/07/10 07:31:25;;;;;;;13.32;2.78;;;;;;;;;;5096013;27;20074;-82
2022/07/10 07:33:51;;;;;;;12.48;2.78;;;;;;;;;;5131760;27;20047;-81
2022/07/10 07:36:18;;;;;;;14.98;2.70;;;;;;;;;;5112792;27;20153;-81
2022/07/10 07:38:44;;;;;;;14.07;3.08;;;;;;;;;;5142722;27;20077;-80
2022/07/10 07:41:10;;;;;;;11.07;2.60;;;;;;;;;;5121610;27;20047;-77
2022/07/10 07:43:36;;;;;;;13.32;2.50;;;;;;;;;;5115551;27;20149;-85
2022/07/10 07:46:02;;;;;;;13.68;2.58;;;;;;;;;;5136304;27;20049;-82
2022/07/10 07:48:28;;;;;;;9.32;2.33;;;;;;;;;;5139376;27;20496;-86
2022/07/10 07:50:55;;;;;;;14.35;2.50;;;;;;;;;;5144690;27;20407;-79
2022/07/10 07:53:21;;;;;;;10.35;2.30;;;;;;;;;;5134014;27;20050;-79
2022/07/10 07:55:47;;;;;;;9.13;2.17;;;;;;;;;;5129496;27;20112;-79
2022/07/10 07:58:13;;;;;;;11.70;2.80;;;;;;;;;;5103896;27;20096;-83
2022/07/10 08:00:39;;;;;;;15.95;2.42;;;;;;;;;;5135478;27;20039;-73
2022/07/10 08:03:05;;;;;;;12.55;2.33;;;;;;;;;;5142579;27;20055;-75
2022/07/10 08:05:31;;;;;;;13.27;2.50;;;;;;;;;;5132605;27;20066;-77
2022/07/10 08:07:58;;;;;;;13.60;3.05;;;;;;;;;;5130086;27;20188;-73
2022/07/10 08:10:26;;;;;;;14.82;2.67;;;;;;;;;;5131401;27;20142;-73
2022/07/10 08:12:52;;;;;;;11.45;2.65;;;;;;;;;;5129744;27;20569;-74
2022/07/10 08:15:18;;;;;;;;;;;;;;;;;;5116262;27;20059;-73
2022/07/10 08:17:47;;;;;;;16.08;2.70;;;;;;;;;;5130368;27;19930;-74
2022/07/10 08:20:14;;;;;;;13.52;2.53;;;;;;;;;;5112800;27;20039;-80
2022/07/10 08:22:41;;;;;;;13.90;3.13;;;;;;;;;;5103903;27;20077;-75
2022/07/10 08:25:07;;;;;;;11.32;2.60;;;;;;;;;;5134773;27;20554;-70
2022/07/10 08:27:33;;;;;;;12.30;2.55;;;;;;;;;;5132641;27;20108;-80
2022/07/10 08:30:00;;;;;;;10.00;2.20;;;;;;;;;;5129226;27;20073;-71
2022/07/10 08:32:27;;;;;;;9.77;2.03;;;;;;;;;;5131758;27;20539;-71
2022/07/10 08:34:53;;;;;;;14.23;2.58;;;;;;;;;;5129690;27;20048;-70
2022/07/10 08:37:19;;;;;;;8.25;1.80;;;;;;;;;;5137658;27;20042;-70
2022/07/10 08:39:46;;;;;;;10.02;2.10;;;;;;;;;;5114412;27;20336;-70
2022/07/10 08:42:12;;;;;;;6.03;2.08;;;;;;;;;;5130568;27;20135;-76
2022/07/10 08:44:39;;;;;;;8.55;1.83;;;;;;;;;;5131458;27;20046;-76
2022/07/10 08:47:05;;;;;;;7.35;1.95;;;;;;;;;;5139448;27;20038;-77
2022/07/10 08:49:31;;;;;;;;;;;;;;;;;;5149302;27;20046;-69
2022/07/10 08:52:05;;;;;;;7.28;1.70;;;;;;;;;;5130040;27;19927;-73
2022/07/10 08:54:32;;;;;;;8.65;1.88;;;;;;;;;;5130951;27;20404;-69
2022/07/10 08:56:59;;;;;;;5.70;1.70;;;;;;;;;;5133075;27;20123;-69
2022/07/10 08:59:25;;;;;;;8.60;1.88;;;;;;;;;;5121589;27;20047;-71
2022/07/10 09:01:52;;;;;;;;;;;;;;;;;;5138010;27;20049;-69
2022/07/10 09:04:19;;;;;;;10.90;2.08;;;;;;;;;;5136357;27;20044;-68
2022/07/10 09:06:45;;;;;;;6.15;1.50;;;;;;;;;;5131310;27;20035;-69
2022/07/10 09:09:12;;;;;;;8.35;2.20;;;;;;;;;;5144927;27;20380;-70
2022/07/10 09:11:40;;;;;;;6.53;2.00;;;;;;;;;;5148226;27;20087;-79
2022/07/10 09:14:11;;;;;;;9.70;1.75;;;;;;;;;;5141406;27;20054;-76
2022/07/10 09:16:41;;;;;;;8.15;1.85;;;;;;;;;;5144178;27;20117;-70
2022/07/10 09:19:22;;;;;;;7.35;1.63;;;;;;;;;;5138753;27;20139;-71
2022/07/10 09:21:49;;;;;;;9.10;1.75;;;;;;;;;;5142548;27;20035;-70
2022/07/10 09:24:19;;;;;;;9.73;2.03;;;;;;;;;;5133460;27;20488;-73
2022/07/10 09:27:03;;;;;;;9.10;1.85;;;;;;;;;;5145901;27;20134;-75
2022/07/10 09:29:30;;;;;;;8.57;2.00;;;;;;;;;;5134155;27;20118;-73
2022/07/10 09:31:57;;;;;;;9.18;1.98;;;;;;;;;;5142210;27;20044;-78
2022/07/10 09:34:36;;;;;;;8.95;2.25;;;;;;;;;;5144098;27;20051;-73
2022/07/10 09:37:17;;;;;;;11.77;2.38;;;;;;;;;;5139875;27;20031;-75
2022/07/10 09:39:53;;;;;;;8.93;2.50;;;;;;;;;;5137795;27;20043;-74
2022/07/10 09:42:33;;;;;;;10.60;3.00;;;;;;;;;;5129375;27;20047;-70
2022/07/10 09:45:17;;;;;;;8.68;2.85;;;;;;;;;;5138939;27;20122;-71
2022/07/10 09:47:52;;;;;;;9.38;2.50;;;;;;;;;;5132119;27;20039;-75
2022/07/10 09:50:26;;;;;;;10.50;2.80;;;;;;;;;;5130713;27;20115;-69
2022/07/10 09:52:54;;;;;;;9.32;2.65;;;;;;;;;;5127455;27;20070;-74
2022/07/10 09:55:21;;;;;;;9.75;2.60;;;;;;;;;;5128262;27;20069;-73
2022/07/10 09:57:52;;;;;;;11.70;2.75;;;;;;;;;;5092175;27;20455;-74
2022/07/10 10:00:18;;;;;;;11.27;2.95;;;;;;;;;;5128098;27;20087;-75
2022/07/10 10:02:44;;;;;;;;;;;;;;;;;;5109784;27;20444;-83
2022/07/10 10:05:10;;;;;;;9.65;2.97;;;;;;;;;;5109626;27;19930;-75
2022/07/10 10:07:38;;;;;;;11.07;2.97;;;;;;;;;;5128648;27;20039;-74
2022/07/10 10:10:05;;;;;;;10.05;2.75;;;;;;;;;;5109661;27;20392;-79
2022/07/10 10:12:45;;;;;;;13.27;3.50;;;;;;;;;;5131462;27;20038;-75
2022/07/10 10:15:12;;;;;;;11.90;3.50;;;;;;;;;;5129845;27;20455;-75
2022/07/10 10:17:39;;;;;;;14.02;3.60;;;;;;;;;;5147948;27;20490;-73
2022/07/10 10:22:51;;;;;;;14.52;3.70;;;;;;;;;;5144978;27;20395;-78
2022/07/10 10:25:17;;;;;;;;;;;;;;;;;;5148845;27;20118;-76
2022/07/10 10:27:43;;;;;;;12.02;3.17;;;;;;;;;;5147330;27;19919;-76
2022/07/10 10:30:10;;;;;;;11.40;3.20;;;;;;;;;;5147522;27;20082;-74
2022/07/10 10:32:40;;;;;;;12.55;3.42;;;;;;;;;;5147023;27;20463;-76
2022/07/10 10:35:09;;;;;;;12.23;3.55;;;;;;;;;;5126906;27;20490;-75
2022/07/10 10:37:36;;;;;;;12.85;3.80;;;;;;;;;;5127262;28;20067;-75
2022/07/10 10:40:03;;;;;;;14.30;4.72;;;;;;;;;;5127289;28;20386;-75
2022/07/10 10:42:39;;;;;;;18.48;4.25;;;;;;;;;;5127692;28;20073;-75
2022/07/10 10:45:24;;;;;;;15.75;4.60;;;;;;;;;;5110099;28;20480;-74
2022/07/10 10:47:59;;;;;;;12.75;4.03;;;;;;;;;;5127631;28;20086;-77
2022/07/10 10:50:38;;;;;;;15.77;4.63;;;;;;;;;;5128359;28;20074;-82
2022/07/10 10:53:05;;;;;;;16.67;4.75;;;;;;;;;;5130236;27;20058;-81
2022/07/10 10:55:31;;;;;;;14.63;3.72;;;;;;;;;;5118378;27;20047;-73
2022/07/10 10:57:57;;;;;;;;;;;;;;;;;;5132193;27;20371;-74
2022/07/10 11:00:33;;;;;;;13.85;4.28;;;;;;;;;;5131498;27;19919;-74
2022/07/10 11:03:12;;;;;;;18.15;4.30;;;;;;;;;;5131414;27;20485;-69
2022/07/10 11:05:41;;;;;;;10.18;3.90;;;;;;;;;;5131204;27;20039;-69
2022/07/10 11:08:07;;;;;;;13.57;4.30;;;;;;;;;;5131200;27;20073;-70
2022/07/10 11:10:37;;;;;;;13.57;4.50;;;;;;;;;;5131513;27;20239;-72
2022/07/10 11:13:11;;;;;;;12.70;3.90;;;;;;;;;;5130838;27;20089;-73
2022/07/10 11:15:48;;;;;;;14.00;3.88;;;;;;;;;;5130695;27;20039;-73
2022/07/10 11:18:15;;;;;;;18.60;4.43;;;;;;;;;;5150157;27;20047;-75
2022/07/10 11:20:49;;;;;;;13.32;3.58;;;;;;;;;;5134082;27;20078;-72
2022/07/10 11:23:30;;;;;;;14.50;3.88;;;;;;;;;;5146018;27;20107;-73
2022/07/10 11:26:11;;;;;;;13.90;3.50;;;;;;;;;;5131816;27;20098;-72
2022/07/10 11:28:43;;;;;;;13.73;3.72;;;;;;;;;;5132386;27;20112;-73
2022/07/10 11:31:09;;;;;;;11.75;3.45;;;;;;;;;;5113337;27;20053;-73
2022/07/10 11:33:35;;;;;;;;;;;;;;;;;;5133424;27;20043;-71
2022/07/10 11:36:09;;;;;;;9.68;3.22;;;;;;;;;;5131546;27;20030;-69
2022/07/10 11:38:35;;;;;;;12.75;3.38;;;;;;;;;;5131972;27;20051;-72
2022/07/10 11:41:01;;;;;;;10.68;3.10;;;;;;;;;;5131285;27;20426;-71
2022/07/10 11:43:27;;;;;;;15.15;2.80;;;;;;;;;;5131575;27;20560;-73
2022/07/10 11:45:59;;;;;;;;;;;;;;;;;;5133296;27;20134;-71
2022/07/10 11:48:25;;;;;;;9.27;2.83;;;;;;;;;;5132175;27;19919;-69
2022/07/10 11:50:51;;;;;;;;;;;;;;;;;;5132299;27;20129;-71
2022/07/10 11:53:24;;;;;;;13.18;3.10;;;;;;;;;;5131323;27;19972;-71
2022/07/10 11:55:52;;;;;;;11.98;3.10;;;;;;;;;;5131606;27;20513;-70
2022/07/10 11:58:18;;;;;;;15.90;3.20;;;;;;;;;;5131616;27;20134;-69
2022/07/10 12:00:44;;;;;;;;;;;;;;;;;;5131508;27;20130;-70
2022/07/10 12:03:17;;;;;;;13.27;3.10;;;;;;;;;;5130147;27;20030;-69
2022/07/10 12:05:44;;;;;;;11.43;2.95;;;;;;;;;;5130546;27;20104;-68
2022/07/10 12:08:11;;;;;;;13.38;2.90;;;;;;;;;;5130724;27;20502;-66
2022/07/10 12:10:41;;;;;;;;;;;;;;;;;;5131687;27;20104;-68
2022/07/10 12:13:16;;;;;;;9.70;3.20;;;;;;;;;;5111844;27;20271;-71
2022/07/10 12:15:43;;;;;;;9.40;2.55;;;;;;;;;;5131632;27;20536;-68
2022/07/10 12:18:17;;;;;;;13.65;3.13;;;;;;;;;;5137830;27;20045;-71
2022/07/10 12:20:47;;;;;;;12.55;2.72;;;;;;;;;;5129602;27;20073;-73
2022/07/10 12:23:19;;;;;;;11.45;3.10;;;;;;;;;;5150871;27;20046;-72
2022/07/10 12:25:48;;;;;;;9.98;2.80;;;;;;;;;;5151344;27;20093;-70
2022/07/10 12:28:14;;;;;;;9.65;2.85;;;;;;;;;;5150757;27;20142;-69
2022/07/10 12:30:40;;;;;;;;;;;;;;;;;;5146344;27;20046;-68
2022/07/10 12:33:07;;;;;;;9.65;2.35;;;;;;;;;;5137165;27;20335;-70
2022/07/10 12:35:45;;;;;;;7.55;2.20;;;;;;;;;;5151047;27;20087;-70
2022/07/10 12:38:22;;;;;;;11.82;2.67;;;;;;;;;;5150065;27;20095;-70
2022/07/10 12:40:48;;;;;;;9.52;2.80;;;;;;;;;;5148344;27;20130;-69
2022/07/10 12:43:25;;;;;;;13.73;3.00;;;;;;;;;;5129329;27;20092;-71
2022/07/10 12:46:10;;;;;;;9.07;2.55;;;;;;;;;;5129962;27;20516;-67
2022/07/10 12:48:37;;;;;;;10.73;2.90;;;;;;;;;;5129800;27;20042;-69
2022/07/10 12:51:22;;;;;;;10.13;2.60;;;;;;;;;;5094068;27;20066;-71
2022/07/10 12:53:48;;;;;;;10.25;3.20;;;;;;;;;;5147214;27;20053;-71
2022/07/10 12:56:30;;;;;;;10.88;2.95;;;;;;;;;;5149499;27;20519;-72
2022/07/10 12:58:56;;;;;;;9.60;3.00;;;;;;;;;;5149986;27;20130;-72
2022/07/10 13:01:22;;;;;;;12.45;3.20;;;;;;;;;;5149284;27;20074;-72
2022/07/10 13:03:48;;;;;;;10.93;3.05;;;;;;;;;;5129950;27;20081;-74
2022/07/10 13:06:28;;;;;;;14.57;3.67;;;;;;;;;;5098792;27;20413;-74
2022/07/10 13:08:54;;;;;;;11.52;3.63;;;;;;;;;;5145218;27;20117;-76
2022/07/10 13:11:21;;;;;;;;;;;;;;;;;;5131397;27;20093;-77
2022/07/10 13:13:47;;;;;;;13.70;4.10;;;;;;;;;;5131230;27;19931;-78
2022/07/10 13:16:13;;;;;;;13.48;4.10;;;;;;;;;;5145113;27;20050;-76
2022/07/10 13:18:39;;;;;;;;;;;;;;;;;;5133936;27;20104;-78
2022/07/10 13:21:05;;;;;;;11.68;4.43;;;;;;;;;;5149607;27;19922;-76
2022/07/10 13:23:32;;;;;;;;;;;;;;;;;;5123675;27;20069;-76
2022/07/10 13:26:00;;;;;;;14.25;4.38;;;;;;;;;;5128871;27;20022;-76
2022/07/10 13:28:27;;;;;;;12.73;4.22;;;;;;;;;;5124116;27;20066;-75
2022/07/10 13:30:53;;;;;;;13.25;4.05;;;;;;;;;;5149106;27;20060;-75
2022/07/10 13:33:19;;;;;;;12.07;3.80;;;;;;;;;;5144978;27;20462;-74
2022/07/10 13:35:46;;;;;;;14.30;3.92;;;;;;;;;;5128737;27;20047;-78
2022/07/10 13:38:12;;;;;;;;;;;;;;;;;;5128406;27;20043;-78
2022/07/10 13:40:38;;;;;;;14.80;4.25;;;;;;;;;;5128420;27;19919;-77
2022/07/10 13:43:06;;;;;;;12.52;4.13;;;;;;;;;;5128375;27;20416;-77
2022/07/10 13:45:37;;;;;;;12.75;3.58;;;;;;;;;;5127523;27;20259;-74
2022/07/10 13:48:06;;;;;;;14.85;4.28;;;;;;;;;;5128419;27;20043;-77
2022/07/10 13:50:32;;;;;;;13.27;3.97;;;;;;;;;;5109708;27;20210;-76
2022/07/10 13:52:58;;;;;;;17.75;4.65;;;;;;;;;;5128413;27;20359;-76
2022/07/10 13:55:24;;;;;;;;;;;;;;;;;;5128400;27;20068;-76
2022/07/10 13:57:50;;;;;;;12.23;4.03;;;;;;;;;;5127503;27;20323;-76
2022/07/10 14:00:17;;;;;;;13.15;4.53;;;;;;;;;;5129022;27;20078;-76
2022/07/10 14:02:43;;;;;;;17.80;4.40;;;;;;;;;;5110659;27;20443;-76
2022/07/10 14:05:09;;;;;;;;;;;;;;;;;;5130002;27;20086;-75
2022/07/10 14:07:35;;;;;;;15.55;4.07;;;;;;;;;;5110314;27;19934;-75
2022/07/10 14:10:01;;;;;;;13.65;4.32;;;;;;;;;;5129652;27;20042;-74
2022/07/10 14:12:27;;;;;;;;;;;;;;;;;;5117016;27;20141;-75
2022/07/10 14:14:54;;;;;;;10.57;3.35;;;;;;;;;;5149526;27;20334;-75
2022/07/10 14:17:20;;;;;;;14.63;3.13;;;;;;;;;;5149538;27;20050;-76
2022/07/10 14:19:47;;;;;;;8.80;2.95;;;;;;;;;;5152186;27;20141;-74
2022/07/10 14:22:12;;;;;;;;;;;;;;;;;;5151246;27;20073;-75
2022/07/10 14:24:39;;;;;;;11.00;3.38;;;;;;;;;;5145022;27;19923;-75
2022/07/10 14:27:06;;;;;;;11.40;3.20;;;;;;;;;;5148200;27;20516;-73
2022/07/10 14:29:32;;;;;;;11.30;3.70;;;;;;;;;;5148636;27;20129;-73
2022/07/10 14:31:58;;;;;;;10.30;2.83;;;;;;;;;;5132650;27;20114;-71
2022/07/10 14:34:24;;;;;;;12.88;3.22;;;;;;;;;;5137815;27;20145;-76
2022/07/10 14:36:50;;;;;;;;;;;;;;;;;;5132730;27;20475;-77
2022/07/10 14:39:16;;;;;;;16.15;3.17;;;;;;;;;;5113169;27;20233;-68
2022/07/10 14:41:42;;;;;;;13.77;2.53;;;;;;;;;;5135484;27;20421;-71
2022/07/10 14:44:08;;;;;;;9.25;2.65;;;;;;;;;;5117911;27;20046;-75
2022/07/10 14:46:34;;;;;;;11.40;2.45;;;;;;;;;;5126549;27;20084;-70
2022/07/10 14:49:00;;;;;;;;;;;;;;;;;;5112178;28;20478;-71
2022/07/10 14:51:26;;;;;;;13.07;2.47;;;;;;;;;;5118212;27;20018;-75
2022/07/10 14:53:53;;;;;;;10.68;2.67;;;;;;;;;;5117827;27;20095;-73
2022/07/10 14:56:19;;;;;;;9.50;2.60;;;;;;;;;;5140211;27;20049;-70
2022/07/10 14:58:45;;;;;;;;;;;;;;;;;;5138050;27;20134;-72